Time;durP1;ratioP1;P1;durP2;ratioP2;P2;SDS_P1;SDS_P2;PMS_P1;PMS_P2;Temp;Humidity;BMP_temperature;BMP_pressure;BME280_temperature;BME280_humidity;BME280_pressure;Samples;Min_cycle;Max_cycle;Signal;HPM_P1;HPM_P2
2022/09/07 00:01:14;;;;;;;5.10;1.72;;;;;;;11.68;63.86;99362.13;4194515;82;21083;-84
2022/09/07 00:07:16;;;;;;;3.60;1.90;;;;;;;11.62;63.91;99358.70;4202039;83;21020;-84
2022/09/07 00:13:45;;;;;;;3.25;1.67;;;;;;;11.57;64.31;99365.31;4198548;82;21091;-84
2022/09/07 00:19:47;;;;;;;5.00;1.82;;;;;;;11.55;64.50;99367.63;4258818;82;22075;-83
2022/09/07 00:32:36;;;;;;;4.90;2.10;;;;;;;11.41;64.59;99357.05;4220719;82;21087;-84
2022/09/07 00:45:36;;;;;;;3.80;2.20;;;;;;;11.24;64.74;99354.86;4202569;82;20969;-84
2022/09/07 00:51:58;;;;;;;3.65;1.62;;;;;;;11.19;64.80;99359.28;4224470;81;21061;-83
2022/09/07 00:58:07;;;;;;;3.40;1.72;;;;;;;11.10;64.72;99359.56;4210453;82;21098;-84
2022/09/07 01:04:12;;;;;;;4.33;2.30;;;;;;;11.10;65.21;99366.41;4187618;83;21105;-84
2022/09/07 01:10:55;;;;;;;6.92;1.55;;;;;;;11.08;65.13;99359.13;4178132;82;21028;-83
2022/09/07 01:17:38;;;;;;;5.60;2.25;;;;;;;10.90;64.92;99358.06;4203348;83;21689;-84
2022/09/07 01:31:09;;;;;;;4.70;2.12;;;;;;;10.83;65.85;99344.27;4254892;82;20979;-84
2022/09/07 01:44:50;;;;;;;4.67;2.25;;;;;;;10.75;66.06;99345.31;4260729;80;21159;-84
2022/09/07 01:51:25;;;;;;;3.95;2.35;;;;;;;10.69;66.83;99337.20;4274694;80;21488;-84
2022/09/07 02:18:07;;;;;;;5.00;1.90;;;;;;;10.61;67.12;99302.66;4051790;85;21544;-83
2022/09/07 02:30:51;;;;;;;5.12;2.52;;;;;;;10.59;67.28;99302.22;3971420;83;21068;-83
2022/09/07 02:44:10;;;;;;;5.90;1.85;;;;;;;10.62;67.64;99300.13;4340677;80;21004;-84
2022/09/07 02:57:39;;;;;;;4.80;2.42;;;;;;;10.63;67.37;99292.14;4210705;82;21058;-84
2022/09/07 03:11:04;;;;;;;6.62;2.30;;;;;;;10.68;67.55;99301.41;4225753;82;20998;-83
2022/09/07 03:17:34;;;;;;;5.25;2.87;;;;;;;10.68;67.65;99304.16;4182447;82;20993;-84
2022/09/07 03:24:01;;;;;;;5.53;2.50;;;;;;;10.60;67.58;99303.83;4233733;82;20971;-84
2022/09/07 03:30:04;;;;;;;;;;;;;;;10.50;68.12;99301.13;4204755;83;21062;-84
2022/09/07 03:36:06;;;;;;;5.42;2.90;;;;;;;10.36;68.03;99300.09;4220078;81;20115;-83
2022/09/07 03:42:22;;;;;;;4.72;2.27;;;;;;;10.26;67.82;99297.39;4222550;82;21048;-83
2022/09/07 03:55:32;;;;;;;6.58;3.33;;;;;;;10.10;68.23;99302.78;4284812;80;21924;-84
2022/09/07 04:01:36;;;;;;;9.18;3.22;;;;;;;9.93;68.43;99307.33;4269705;81;21612;-84
2022/09/07 04:07:48;;;;;;;6.85;3.05;;;;;;;9.73;68.67;99298.91;4199627;82;21085;-84
2022/09/07 04:13:51;;;;;;;8.88;3.10;;;;;;;9.63;69.13;99311.81;4207858;82;21733;-83
2022/09/07 04:19:54;;;;;;;5.10;2.75;;;;;;;9.54;69.16;99312.02;4202378;83;21559;-84
2022/09/07 04:26:16;;;;;;;5.75;3.00;;;;;;;9.39;68.86;99319.16;4208186;82;21022;-84
2022/09/07 04:32:17;;;;;;;7.83;2.87;;;;;;;9.24;69.46;99336.95;4211050;83;21125;-83
2022/09/07 04:38:56;;;;;;;5.80;2.87;;;;;;;9.24;70.35;99336.39;4242542;80;21047;-84
2022/09/07 04:51:46;;;;;;;7.40;2.47;;;;;;;9.22;71.92;99333.81;4190973;82;21599;-83
2022/09/07 04:58:02;;;;;;;8.80;3.10;;;;;;;9.22;71.92;99333.81;4177437;82;21489;-83
2022/09/07 05:04:15;;;;;;;8.75;3.35;;;;;;;9.17;71.40;99319.86;4187096;83;21022;-83
2022/09/07 05:10:22;;;;;;;9.55;3.65;;;;;;;9.16;71.66;99322.36;4212550;82;21086;-83
2022/09/07 05:16:39;;;;;;;8.50;3.27;;;;;;;9.14;71.74;99312.38;4203526;83;21063;-83
2022/09/07 05:23:04;;;;;;;9.78;3.35;;;;;;;9.22;71.88;99309.99;4205747;82;21123;-84
2022/09/07 05:29:15;;;;;;;5.40;3.30;;;;;;;9.39;72.34;99326.56;4240513;82;20985;-83
2022/09/07 05:42:08;;;;;;;7.22;3.27;;;;;;;9.55;71.99;99319.09;4224755;82;20984;-83
2022/09/07 05:48:17;;;;;;;9.03;3.58;;;;;;;9.66;72.09;99319.30;4218069;81;21663;-84
2022/09/07 05:54:32;;;;;;;7.87;3.52;;;;;;;9.80;71.72;99319.56;4226918;81;21064;-84
2022/09/07 06:00:33;;;;;;;7.37;2.95;;;;;;;9.95;71.93;99322.77;4218716;82;21000;-84
2022/09/07 06:06:39;;;;;;;11.00;3.98;;;;;;;10.12;72.24;99320.40;4201038;82;21125;-84
2022/09/07 06:12:45;;;;;;;12.25;3.65;;;;;;;10.25;71.80;99324.55;4197588;83;21071;-84
2022/09/07 06:19:20;;;;;;;8.05;3.83;;;;;;;10.29;71.61;99320.52;4188393;82;21116;-84
2022/09/07 06:25:22;;;;;;;10.80;3.45;;;;;;;10.57;71.94;99317.65;4123211;83;21865;-85
2022/09/07 06:31:51;;;;;;;10.32;4.40;;;;;;;11.00;71.56;99316.36;4127588;83;22153;-84
2022/09/07 06:37:59;;;;;;;9.90;4.20;;;;;;;11.25;71.11;99314.75;4127941;83;21920;-84
2022/09/07 06:44:01;;;;;;;7.33;4.13;;;;;;;11.46;71.04;99310.92;4137448;83;21122;-84
2022/09/07 06:50:02;;;;;;;7.97;4.45;;;;;;;11.68;70.93;99318.25;4111095;83;21069;-83
2022/09/07 06:56:08;;;;;;;9.45;4.53;;;;;;;11.83;70.95;99316.47;4191856;83;21681;-84
2022/09/07 07:02:13;;;;;;;14.15;4.37;;;;;;;11.99;70.97;99315.66;4246815;80;21114;-84
2022/09/07 07:08:24;;;;;;;9.63;4.37;;;;;;;12.16;70.84;99300.76;4253925;81;21067;-84
2022/09/07 07:14:32;;;;;;;8.88;5.05;;;;;;;12.39;70.76;99308.80;4272249;80;21007;-84
2022/09/07 07:27:30;;;;;;;11.85;5.05;;;;;;;12.86;69.98;99320.38;4286056;82;21096;-84
2022/09/07 07:40:40;;;;;;;11.93;5.37;;;;;;;13.40;70.06;99307.95;4256054;80;21143;-85
2022/09/07 07:54:17;;;;;;;15.90;4.92;;;;;;;14.01;69.54;99301.69;4232494;81;21063;-82
2022/09/07 08:00:29;;;;;;;11.93;5.25;;;;;;;14.50;69.30;99291.94;4260017;81;21033;-83
2022/09/07 08:07:11;;;;;;;7.95;4.83;;;;;;;15.09;69.21;99304.28;4289372;80;21502;-83
2022/09/07 08:13:37;;;;;;;9.38;4.83;;;;;;;15.57;68.90;99289.36;4251579;80;21034;-84
2022/09/07 08:20:01;;;;;;;13.80;4.78;;;;;;;16.03;68.47;99294.66;4269138;80;21154;-83
2022/09/07 08:26:02;;;;;;;12.53;5.40;;;;;;;16.26;67.77;99287.98;4176627;82;21142;-83
2022/09/07 08:32:05;;;;;;;10.03;4.53;;;;;;;16.54;67.33;99287.21;4152341;84;21124;-84
2022/09/07 08:51:55;;;;;;;11.48;4.67;;;;;;;17.25;66.23;99272.11;4078592;85;21584;-85
2022/09/07 09:04:51;;;;;;;8.08;4.35;;;;;;;17.92;65.49;99242.98;4133512;83;21713;-87
2022/09/07 09:11:27;;;;;;;14.00;5.05;;;;;;;18.47;63.67;99234.23;4137334;83;21591;-86
2022/09/07 09:17:52;;;;;;;7.17;4.60;;;;;;;19.06;64.26;99237.16;4259817;81;21164;-86
2022/09/07 09:45:44;;;;;;;9.23;4.60;;;;;;;22.28;60.52;99234.29;4252376;80;21024;-86
2022/09/07 09:52:02;;;;;;;8.50;4.25;;;;;;;23.20;59.63;99222.34;4289581;80;21012;-87
2022/09/07 09:58:30;;;;;;;9.63;4.30;;;;;;;24.07;58.33;99220.26;4271534;81;21032;-88
2022/09/07 10:17:40;;;;;;;7.70;3.90;;;;;;;25.90;54.40;99206.69;4280727;80;21014;-87
2022/09/07 10:23:54;;;;;;;10.23;4.03;;;;;;;26.33;53.05;99205.44;4258133;81;21035;-87
2022/09/07 10:30:01;;;;;;;8.35;3.60;;;;;;;26.63;52.58;99197.27;4153019;82;21577;-87
2022/09/07 10:36:09;;;;;;;6.60;4.10;;;;;;;27.13;51.40;99194.27;4141260;83;21213;-87
2022/09/07 10:42:27;;;;;;;10.53;3.92;;;;;;;27.66;50.15;99194.23;4135355;83;21048;-87
2022/09/07 10:49:03;;;;;;;9.95;4.00;;;;;;;27.73;49.87;99185.41;4093217;84;21108;-87
2022/09/07 11:01:55;;;;;;;9.83;3.58;;;;;;;27.35;47.81;99182.69;4125322;83;21091;-87
2022/09/07 11:15:06;;;;;;;11.03;4.73;;;;;;;27.32;46.87;99187.88;4230044;82;21054;-88
2022/09/07 11:42:39;;;;;;;9.53;3.98;;;;;;;26.48;45.55;99173.38;4203898;81;21007;-87
2022/09/07 11:55:42;;;;;;;6.47;3.62;;;;;;;25.07;45.13;99160.28;4254471;80;21070;-87
2022/09/07 12:02:00;;;;;;;7.37;4.10;;;;;;;24.86;45.47;99155.61;4299403;80;21016;-87
2022/09/07 12:08:39;;;;;;;8.08;3.77;;;;;;;24.60;45.48;99142.53;4270424;80;21023;-86
2022/09/07 12:15:42;;;;;;;8.15;3.90;;;;;;;24.27;45.50;99143.73;4191112;82;21087;-86
2022/09/07 12:35:53;;;;;;;6.70;3.75;;;;;;;23.72;46.23;99097.87;4271347;81;21118;-86
2022/09/07 12:49:28;;;;;;;8.58;4.20;;;;;;;23.69;47.32;99114.16;4255345;82;20149;-86
2022/09/07 12:56:14;;;;;;;5.53;3.67;;;;;;;23.44;46.81;99112.35;4248643;81;21053;-86
2022/09/07 13:09:35;;;;;;;8.83;4.15;;;;;;;23.40;47.63;99101.16;4274299;80;21087;-86
2022/09/07 13:16:08;;;;;;;7.10;4.28;;;;;;;23.34;48.07;99091.80;4254480;80;21018;-87
2022/09/07 13:22:34;;;;;;;12.15;3.55;;;;;;;23.21;48.17;99088.45;4290285;80;21008;-85
2022/09/07 13:29:14;;;;;;;7.13;3.40;;;;;;;23.13;48.38;99082.22;4262990;81;21000;-84
2022/09/07 13:35:37;;;;;;;5.17;3.80;;;;;;;23.09;48.75;99076.76;4240666;80;21026;-85
2022/09/07 13:41:57;;;;;;;8.15;3.40;;;;;;;23.02;49.13;99067.88;4287873;80;21027;-84
2022/09/07 13:48:51;;;;;;;4.83;3.80;;;;;;;22.97;49.12;99069.86;4263276;80;21019;-84
2022/09/07 13:55:46;;;;;;;7.55;3.47;;;;;;;22.97;49.24;99074.80;4232309;81;21579;-85
2022/09/07 14:08:30;;;;;;;7.95;3.80;;;;;;;22.81;49.38;99063.08;4211601;82;21100;-86
2022/09/07 14:14:35;;;;;;;5.53;3.62;;;;;;;22.78;49.70;99059.80;4186061;82;20989;-85
2022/09/07 14:20:45;;;;;;;7.42;3.40;;;;;;;22.81;50.21;99063.08;4182864;82;21046;-86
2022/09/07 14:47:39;;;;;;;6.00;3.52;;;;;;;22.65;50.30;99043.13;4269738;80;21679;-85
2022/09/07 15:07:40;;;;;;;7.40;3.65;;;;;;;22.43;51.03;99043.70;4125689;84;21118;-85
2022/09/07 15:20:45;;;;;;;9.93;3.17;;;;;;;22.31;51.21;99034.79;4168180;82;21044;-85
2022/09/07 15:26:54;;;;;;;6.20;3.40;;;;;;;22.27;51.36;99040.33;4137290;82;21102;-86
2022/09/07 15:32:56;;;;;;;6.10;3.15;;;;;;;22.18;51.91;99034.05;4233647;80;21199;-86
2022/09/07 15:39:03;;;;;;;5.45;3.60;;;;;;;22.07;51.74;99030.85;4226317;82;21064;-86
2022/09/07 15:45:06;;;;;;;9.53;3.90;;;;;;;22.02;51.92;99020.91;4291834;81;21047;-85
2022/09/07 15:51:44;;;;;;;6.62;3.72;;;;;;;21.94;52.29;99035.67;4257777;80;21550;-86
2022/09/07 15:57:50;;;;;;;9.35;3.30;;;;;;;21.82;52.57;99027.34;4236831;80;21015;-85
2022/09/07 16:10:17;;;;;;;7.90;3.77;;;;;;;21.66;53.40;99006.73;4230102;80;21366;-86
2022/09/07 16:16:43;;;;;;;9.13;3.70;;;;;;;21.58;53.75;99007.44;4266899;80;21063;-85
2022/09/07 16:22:45;;;;;;;5.83;3.80;;;;;;;21.46;53.92;98997.86;4258254;80;21090;-86
2022/09/07 16:35:43;;;;;;;11.38;4.25;;;;;;;21.13;54.72;98997.92;4253574;80;21026;-86
2022/09/07 16:41:49;;;;;;;7.65;4.10;;;;;;;20.95;55.22;98992.11;4267258;81;22025;-86
2022/09/07 16:54:44;;;;;;;10.10;4.30;;;;;;;20.66;56.39;98997.55;4122443;84;21660;-86
2022/09/07 17:01:08;;;;;;;6.35;3.90;;;;;;;20.48;57.52;99005.04;4124144;83;21494;-85
2022/09/07 17:07:11;;;;;;;13.18;4.60;;;;;;;20.30;57.84;99014.47;4253298;81;21011;-86
2022/09/07 17:13:13;;;;;;;15.65;5.65;;;;;;;19.97;58.65;99015.14;4265417;81;21071;-85
2022/09/07 17:26:18;;;;;;;8.30;4.72;;;;;;;19.44;60.37;99019.07;4267663;80;21020;-85
2022/09/07 17:38:51;;;;;;;11.20;5.83;;;;;;;18.74;61.93;99027.75;4262003;80;21116;-85
2022/09/07 17:51:46;;;;;;;9.85;5.83;;;;;;;18.21;63.87;99030.77;4251628;82;21456;-85
2022/09/07 18:05:01;;;;;;;23.45;9.05;;;;;;;17.70;65.09;99027.75;4231541;81;21019;-85
2022/09/07 18:17:27;;;;;;;14.35;7.40;;;;;;;17.35;67.06;99033.25;4241668;82;20412;-85
2022/09/07 18:23:37;;;;;;;12.13;8.00;;;;;;;17.11;67.18;99031.63;4264734;80;21053;-84
2022/09/07 18:29:39;;;;;;;13.40;7.62;;;;;;;16.96;67.40;99028.27;4258636;80;21059;-84
2022/09/07 18:36:00;;;;;;;12.45;7.85;;;;;;;16.82;68.22;99042.29;4266970;81;21024;-84
2022/09/07 18:42:11;;;;;;;14.43;8.15;;;;;;;16.71;68.59;99034.73;4260180;81;21146;-84
2022/09/07 18:48:33;;;;;;;16.23;8.33;;;;;;;16.60;69.12;99034.70;4269807;81;20992;-85
2022/09/07 18:54:52;;;;;;;14.55;8.98;;;;;;;16.46;69.51;99035.63;4239083;80;22049;-85
2022/09/07 19:07:48;;;;;;;15.98;9.25;;;;;;;16.20;70.62;99028.02;4187886;80;21996;-84
2022/09/07 19:14:12;;;;;;;14.65;10.95;;;;;;;16.14;71.44;99028.88;4269083;80;20962;-85
2022/09/07 19:20:13;;;;;;;23.47;11.35;;;;;;;16.00;71.60;99032.58;4259378;80;21032;-84
2022/09/07 19:33:08;;;;;;;22.75;10.53;;;;;;;15.71;72.66;99013.94;4094855;84;22225;-85
2022/09/07 19:39:42;;;;;;;24.15;12.65;;;;;;;15.51;73.21;99022.77;4148994;83;21040;-84
2022/09/07 19:45:52;;;;;;;20.92;11.97;;;;;;;15.34;73.46;99014.59;4229864;80;21079;-84
2022/09/07 19:52:11;;;;;;;24.65;11.83;;;;;;;15.29;74.25;99011.68;4261544;81;21071;-85
2022/09/07 19:58:18;;;;;;;20.08;10.75;;;;;;;15.16;74.77;99012.58;4251263;81;21151;-84
2022/09/07 20:04:27;;;;;;;27.17;13.62;;;;;;;15.17;75.70;99018.27;4239939;81;21035;-85
2022/09/07 20:10:46;;;;;;;25.62;13.00;;;;;;;15.16;75.43;99016.09;4263648;80;20994;-84
2022/09/07 20:16:51;;;;;;;29.20;13.85;;;;;;;15.17;75.64;99012.76;4254551;80;21579;-85
2022/09/07 20:22:53;;;;;;;28.20;13.88;;;;;;;15.11;75.69;99007.48;4270249;80;21021;-85
2022/09/07 20:28:58;;;;;;;25.60;13.98;;;;;;;15.08;75.73;99006.30;4243292;80;22046;-84
2022/09/07 20:35:05;;;;;;;20.12;13.40;;;;;;;15.08;75.90;99016.56;4268199;80;21000;-84
2022/09/07 20:41:30;;;;;;;24.55;14.18;;;;;;;15.12;76.13;99012.59;4260676;80;21010;-84
2022/09/07 20:47:43;;;;;;;25.32;14.00;;;;;;;15.13;76.11;99005.09;4244773;80;21007;-85
2022/09/07 20:53:45;;;;;;;25.40;13.65;;;;;;;15.13;76.09;99004.50;4126069;84;21107;-85
2022/09/07 20:59:57;;;;;;;21.97;14.05;;;;;;;15.12;75.87;99002.95;4122482;83;21536;-84
2022/09/07 21:06:09;;;;;;;24.65;13.72;;;;;;;15.11;76.28;99009.63;4134366;84;21175;-85
2022/09/07 21:19:09;;;;;;;26.05;13.55;;;;;;;15.06;76.88;99016.97;4246962;81;21956;-85
2022/09/07 21:25:34;;;;;;;23.47;14.40;;;;;;;14.98;76.91;99016.83;4263241;80;21071;-85
2022/09/07 21:38:05;;;;;;;30.72;14.38;;;;;;;14.85;77.12;99017.67;4017715;86;21075;-84
2022/09/07 21:44:14;;;;;;;27.07;13.95;;;;;;;14.78;77.30;99009.45;4078067;82;21049;-84
2022/09/07 21:50:19;;;;;;;25.77;14.43;;;;;;;14.71;77.94;99010.28;4260482;80;21162;-84
2022/09/07 21:56:23;;;;;;;24.27;14.15;;;;;;;14.67;77.80;99012.28;4263965;81;21149;-84
2022/09/07 22:02:31;;;;;;;24.80;12.68;;;;;;;14.63;77.61;99001.85;4267192;80;21087;-84
2022/09/07 22:08:39;;;;;;;25.75;12.37;;;;;;;14.59;77.62;98990.08;4269966;80;21671;-85
2022/09/07 22:15:07;;;;;;;22.05;13.38;;;;;;;14.59;78.65;98998.92;4264506;82;21021;-84
2022/09/07 22:21:12;;;;;;;;;;;;;;;14.51;78.49;98990.50;4250706;81;21026;-84
2022/09/07 22:27:20;;;;;;;20.68;12.18;;;;;;;14.39;78.56;98982.11;4260456;80;20284;-85
2022/09/07 22:33:22;;;;;;;21.55;12.18;;;;;;;14.35;78.82;98988.80;4263285;80;21012;-84
2022/09/07 22:39:23;;;;;;;24.67;13.00;;;;;;;14.32;79.21;98986.84;4250973;80;21172;-84
2022/09/07 22:45:25;;;;;;;27.07;13.78;;;;;;;14.20;79.65;98990.20;4261024;80;21040;-84
2022/09/07 22:51:28;;;;;;;25.65;14.60;;;;;;;14.07;79.45;98984.16;4254655;80;21555;-84
2022/09/07 22:57:29;;;;;;;25.65;14.10;;;;;;;13.86;79.89;98982.23;4267277;80;21398;-84
2022/09/07 23:03:33;;;;;;;24.50;13.58;;;;;;;13.67;80.06;98982.66;4265167;80;21047;-84
2022/09/07 23:09:37;;;;;;;24.23;14.10;;;;;;;13.56;80.19;98982.50;4274771;80;21052;-84
2022/09/07 23:15:42;;;;;;;25.85;14.63;;;;;;;13.44;80.56;98976.80;4256770;80;21115;-84
2022/09/07 23:21:49;;;;;;;25.00;13.53;;;;;;;13.34;80.75;98968.56;4257433;80;21076;-84
2022/09/07 23:27:51;;;;;;;20.10;11.88;;;;;;;13.26;81.09;98956.80;4289953;80;20977;-84
2022/09/07 23:34:01;;;;;;;24.30;13.20;;;;;;;13.14;81.43;98947.55;4284576;80;21543;-84
2022/09/07 23:40:10;;;;;;;22.25;13.03;;;;;;;13.11;81.85;98948.95;4253101;80;21079;-84
2022/09/07 23:46:12;;;;;;;24.65;13.13;;;;;;;13.08;81.82;98938.70;4257778;80;21087;-84
2022/09/07 23:52:15;;;;;;;22.85;12.73;;;;;;;13.03;82.27;98954.23;4269738;80;21029;-84
2022/09/07 23:58:29;;;;;;;22.48;12.90;;;;;;;13.03;82.24;98945.99;4268941;80;21067;-84
